Time;durP1;ratioP1;P1;durP2;ratioP2;P2;SDS_P1;SDS_P2;PMS_P1;PMS_P2;Temp;Humidity;BMP_temperature;BMP_pressure;BME280_temperature;BME280_humidity;BME280_pressure;Samples;Min_cycle;Max_cycle;Signal;HPM_P1;HPM_P2
2021/03/02 00:00:29;;;;;;;20.73;12.00;;;-1.30;99.90;;;;;;2048973;28;20255;-69
2021/03/02 00:01:30;;;;;;;19.30;11.43;;;-1.30;99.90;;;;;;2048567;28;20605;-70
2021/03/02 00:02:31;;;;;;;18.70;11.32;;;-1.30;99.90;;;;;;2057009;28;20185;-70
2021/03/02 00:03:34;;;;;;;18.92;12.07;;;-1.30;99.90;;;;;;2057008;28;20184;-70
2021/03/02 00:04:35;;;;;;;19.40;11.73;;;-1.30;99.90;;;;;;2057133;28;20193;-70
2021/03/02 00:05:36;;;;;;;19.88;11.77;;;-1.30;99.90;;;;;;2057416;28;20198;-70
2021/03/02 00:06:38;;;;;;;20.57;12.50;;;-1.30;99.90;;;;;;2065037;28;20186;-70
2021/03/02 00:07:39;;;;;;;20.30;12.13;;;-1.30;99.90;;;;;;2064971;28;20423;-70
2021/03/02 00:08:40;;;;;;;18.83;11.85;;;-1.30;99.90;;;;;;2056967;28;20185;-70
2021/03/02 00:09:42;;;;;;;22.70;12.93;;;-1.30;99.90;;;;;;2065111;28;20242;-70
2021/03/02 00:10:44;;;;;;;18.98;11.77;;;-1.30;99.90;;;;;;2056749;28;20224;-70
2021/03/02 00:11:44;;;;;;;21.73;12.82;;;-1.30;99.90;;;;;;2056768;28;20187;-70
2021/03/02 00:12:46;;;;;;;21.08;12.50;;;-1.30;99.90;;;;;;2064930;28;20234;-70
2021/03/02 00:13:46;;;;;;;20.88;12.35;;;-1.30;99.90;;;;;;2064981;28;20182;-70
2021/03/02 00:14:47;;;;;;;20.47;11.80;;;-1.30;99.90;;;;;;2073666;28;20180;-70
2021/03/02 00:15:48;;;;;;;20.80;12.10;;;-1.30;99.90;;;;;;2072933;28;20232;-70
2021/03/02 00:16:58;;;;;;;20.03;11.30;;;-1.30;99.90;;;;;;2073072;28;20172;-70
2021/03/02 00:18:00;;;;;;;24.15;11.77;;;-1.40;99.90;;;;;;2065130;28;20250;-70
2021/03/02 00:19:13;;;;;;;19.42;10.95;;;-1.30;99.90;;;;;;2065379;28;20284;-70
2021/03/02 00:20:20;;;;;;;19.23;10.82;;;-1.30;99.90;;;;;;2065051;28;20237;-70
2021/03/02 00:21:29;;;;;;;22.65;11.90;;;-1.40;99.90;;;;;;2057527;28;20222;-71
2021/03/02 00:22:43;;;;;;;18.48;10.50;;;-1.40;99.90;;;;;;2057835;28;20168;-71
2021/03/02 00:23:52;;;;;;;16.15;10.43;;;-1.40;99.90;;;;;;2059234;28;20848;-70
2021/03/02 00:25:04;;;;;;;19.42;11.65;;;-1.40;99.90;;;;;;2066305;28;20238;-70
2021/03/02 00:26:08;;;;;;;17.95;10.45;;;-1.40;99.90;;;;;;2065200;28;20270;-70
2021/03/02 00:27:11;;;;;;;17.05;10.43;;;-1.40;99.90;;;;;;2057492;28;20679;-70
2021/03/02 00:28:13;;;;;;;19.15;11.02;;;-1.40;99.90;;;;;;2057351;28;20662;-70
2021/03/02 00:29:15;;;;;;;19.70;11.20;;;-1.40;99.90;;;;;;2065306;28;20201;-70
2021/03/02 00:30:17;;;;;;;18.98;11.18;;;-1.30;99.90;;;;;;2073589;28;20292;-71
2021/03/02 00:31:17;;;;;;;19.77;12.73;;;-1.30;99.90;;;;;;2073189;28;20672;-71
2021/03/02 00:32:20;;;;;;;21.03;11.93;;;-1.30;99.90;;;;;;2074222;28;20191;-70
2021/03/02 00:33:21;;;;;;;21.48;12.40;;;-1.30;99.90;;;;;;2065454;28;20183;-71
2021/03/02 00:34:22;;;;;;;20.65;12.18;;;-1.30;99.90;;;;;;2057274;28;20198;-70
2021/03/02 00:35:23;;;;;;;18.47;11.40;;;-1.30;99.90;;;;;;2057406;28;20169;-71
2021/03/02 00:36:24;;;;;;;18.17;11.57;;;-1.30;99.90;;;;;;2056789;28;20670;-71
2021/03/02 00:37:25;;;;;;;23.33;12.67;;;-1.30;99.90;;;;;;2048783;29;20195;-71
2021/03/02 00:38:25;;;;;;;23.17;13.10;;;-1.30;99.90;;;;;;2049170;29;20198;-70
2021/03/02 00:39:26;;;;;;;19.30;11.83;;;-1.30;99.90;;;;;;2048741;29;20196;-71
2021/03/02 00:40:27;;;;;;;19.80;11.67;;;-1.30;99.90;;;;;;2048687;28;20208;-71
2021/03/02 00:41:28;;;;;;;23.03;12.33;;;-1.30;99.90;;;;;;2056257;28;20607;-70
2021/03/02 00:42:29;;;;;;;17.30;11.47;;;-1.30;99.90;;;;;;2056739;28;20425;-70
2021/03/02 00:43:30;;;;;;;22.00;13.07;;;-1.30;99.90;;;;;;2056823;28;20186;-70
2021/03/02 00:44:31;;;;;;;20.80;12.17;;;-1.30;99.90;;;;;;2050204;29;20432;-71
2021/03/02 00:45:32;;;;;;;22.48;12.30;;;-1.30;99.90;;;;;;2048817;29;20188;-71
2021/03/02 00:46:33;;;;;;;21.55;11.70;;;-1.40;99.90;;;;;;2056987;28;20215;-70
2021/03/02 00:47:34;;;;;;;23.50;12.90;;;-1.40;99.90;;;;;;2064899;28;20180;-71
2021/03/02 00:48:34;;;;;;;17.90;11.10;;;-1.40;99.90;;;;;;2064828;28;20193;-71
2021/03/02 00:49:35;;;;;;;21.37;12.83;;;-1.40;99.90;;;;;;2064605;28;20546;-70
2021/03/02 00:50:36;;;;;;;21.20;12.30;;;-1.40;99.90;;;;;;2065335;28;20286;-70
2021/03/02 00:51:37;;;;;;;20.67;12.07;;;-1.40;99.90;;;;;;2056651;28;20543;-70
2021/03/02 00:52:38;;;;;;;21.17;11.77;;;-1.40;99.90;;;;;;2057168;28;20184;-70
2021/03/02 00:53:38;;;;;;;18.93;11.60;;;-1.40;99.90;;;;;;2073901;28;20575;-70
2021/03/02 00:54:39;;;;;;;18.17;11.20;;;-1.40;99.90;;;;;;2065333;28;20222;-70
2021/03/02 00:55:41;;;;;;;21.33;10.90;;;-1.40;99.90;;;;;;2065372;28;20200;-70
2021/03/02 00:56:41;;;;;;;20.30;12.18;;;-1.40;99.90;;;;;;2065330;28;20555;-70
2021/03/02 00:57:42;;;;;;;22.83;12.43;;;-1.40;99.90;;;;;;2065098;28;20199;-70
2021/03/02 00:58:44;;;;;;;20.37;12.33;;;-1.50;99.90;;;;;;2064750;28;20184;-70
2021/03/02 00:59:45;;;;;;;25.48;12.10;;;-1.50;99.90;;;;;;2064882;28;20213;-70
2021/03/02 01:00:45;;;;;;;25.17;12.23;;;-1.50;99.90;;;;;;2073408;28;20236;-70
2021/03/02 01:01:46;;;;;;;21.87;12.43;;;-1.50;99.90;;;;;;2072933;28;20184;-70
2021/03/02 01:02:47;;;;;;;24.93;13.40;;;-1.50;99.90;;;;;;2064754;28;20700;-70
2021/03/02 01:03:47;;;;;;;21.60;12.10;;;-1.50;99.90;;;;;;2064599;28;20194;-71
2021/03/02 01:04:48;;;;;;;21.43;11.07;;;-1.60;99.90;;;;;;2073379;28;20221;-70
2021/03/02 01:05:49;;;;;;;18.23;11.70;;;-1.50;99.90;;;;;;2073316;28;20174;-70
2021/03/02 01:06:50;;;;;;;19.20;11.13;;;-1.50;99.90;;;;;;2073194;28;20213;-70
2021/03/02 01:07:50;;;;;;;20.90;12.07;;;-1.50;99.90;;;;;;2073207;28;20641;-70
2021/03/02 01:08:51;;;;;;;21.03;11.77;;;-1.60;99.90;;;;;;2073235;28;20664;-70
2021/03/02 01:09:52;;;;;;;18.77;11.37;;;-1.50;99.90;;;;;;2064570;28;20250;-70
2021/03/02 01:10:52;;;;;;;18.65;10.82;;;-1.50;99.90;;;;;;2064012;28;20175;-71
2021/03/02 01:11:53;;;;;;;24.47;12.23;;;-1.60;99.90;;;;;;2064594;28;20576;-71
2021/03/02 01:12:54;;;;;;;21.17;12.30;;;-1.60;99.90;;;;;;2064496;28;20177;-70
2021/03/02 01:13:55;;;;;;;20.33;11.57;;;-1.60;99.90;;;;;;2072839;28;20277;-71
2021/03/02 01:14:56;;;;;;;25.20;13.57;;;-1.60;99.90;;;;;;2064288;28;20554;-70
2021/03/02 01:15:57;;;;;;;24.55;12.27;;;-1.60;99.90;;;;;;2064658;28;20653;-71
2021/03/02 01:16:58;;;;;;;18.53;10.83;;;-1.60;99.90;;;;;;2064366;28;20192;-71
2021/03/02 01:17:59;;;;;;;18.40;10.83;;;-1.60;99.90;;;;;;2064907;28;20179;-70
2021/03/02 01:18:59;;;;;;;18.73;11.67;;;-1.60;99.90;;;;;;2072747;28;20221;-70
2021/03/02 01:20:00;;;;;;;20.20;11.10;;;-1.60;99.90;;;;;;2073171;28;20264;-70
2021/03/02 01:21:01;;;;;;;17.53;10.53;;;-1.60;99.90;;;;;;2063850;28;20179;-70
2021/03/02 01:22:02;;;;;;;17.57;11.00;;;-1.60;99.90;;;;;;2064664;28;20263;-71
2021/03/02 01:23:03;;;;;;;21.03;10.60;;;-1.60;99.90;;;;;;2064426;28;20526;-70
2021/03/02 01:24:04;;;;;;;14.85;9.18;;;-1.70;99.90;;;;;;2064701;28;20183;-70
2021/03/02 01:25:12;;;;;;;19.52;10.73;;;-1.70;99.90;;;;;;2072906;28;20190;-70
2021/03/02 01:26:13;;;;;;;18.55;10.63;;;-1.70;99.90;;;;;;2073336;28;20208;-70
2021/03/02 01:27:14;;;;;;;18.10;11.70;;;-1.70;99.90;;;;;;2072252;28;20228;-70
2021/03/02 01:28:15;;;;;;;22.37;12.47;;;-1.70;99.90;;;;;;2064480;28;20286;-71
2021/03/02 01:29:15;;;;;;;22.03;12.33;;;-1.70;99.90;;;;;;2064373;28;20503;-70
2021/03/02 01:30:18;;;;;;;18.37;11.57;;;-1.80;99.90;;;;;;2072468;28;20785;-71
2021/03/02 01:31:19;;;;;;;20.52;11.05;;;-1.80;99.90;;;;;;2063668;28;20212;-70
2021/03/02 01:32:19;;;;;;;22.97;11.30;;;-1.80;99.90;;;;;;2056557;28;20843;-70
2021/03/02 01:33:20;;;;;;;19.23;11.13;;;-1.80;99.90;;;;;;2064390;28;20178;-71
2021/03/02 01:34:21;;;;;;;19.73;10.93;;;-1.80;99.90;;;;;;2073222;28;20711;-70
2021/03/02 01:35:21;;;;;;;18.17;11.47;;;-1.80;99.90;;;;;;2073069;28;20173;-70
2021/03/02 01:36:22;;;;;;;18.90;11.13;;;-1.70;99.90;;;;;;2073128;28;20231;-70
2021/03/02 01:37:23;;;;;;;19.77;11.37;;;-1.80;99.90;;;;;;2064307;28;20588;-70
2021/03/02 01:38:23;;;;;;;17.87;11.07;;;-1.80;99.90;;;;;;2064356;28;20179;-70
2021/03/02 01:39:24;;;;;;;20.77;12.00;;;-1.70;99.90;;;;;;2071564;28;20182;-70
2021/03/02 01:40:25;;;;;;;19.33;11.47;;;-1.70;99.90;;;;;;2064371;28;20194;-70
2021/03/02 01:41:25;;;;;;;21.37;11.43;;;-1.80;99.90;;;;;;2055425;28;20284;-70
2021/03/02 01:42:26;;;;;;;19.13;11.43;;;-1.80;99.90;;;;;;2064393;28;20183;-70
2021/03/02 01:43:27;;;;;;;18.60;11.13;;;-1.80;99.90;;;;;;2072376;28;20638;-70
2021/03/02 01:44:29;;;;;;;16.20;9.60;;;-1.80;99.90;;;;;;2073202;28;20212;-71
2021/03/02 01:45:30;;;;;;;22.13;11.98;;;-1.80;99.90;;;;;;2072262;28;20232;-70
2021/03/02 01:46:30;;;;;;;18.00;10.47;;;-1.80;99.90;;;;;;2056200;28;20226;-70
2021/03/02 01:47:31;;;;;;;16.87;10.00;;;-1.80;99.90;;;;;;2056098;28;20642;-70
2021/03/02 01:48:36;;;;;;;18.70;9.53;;;-1.80;99.90;;;;;;2064430;28;20254;-70
2021/03/02 01:49:37;;;;;;;17.75;9.73;;;-1.80;99.90;;;;;;2056700;28;20176;-70
2021/03/02 01:50:38;;;;;;;19.95;10.70;;;-1.80;99.90;;;;;;2056231;28;20227;-70
2021/03/02 01:51:39;;;;;;;20.93;11.57;;;-1.80;99.90;;;;;;2063569;28;20265;-70
2021/03/02 01:52:40;;;;;;;18.83;11.57;;;-1.80;99.90;;;;;;2072863;28;20174;-70
2021/03/02 01:53:41;;;;;;;16.42;10.10;;;-1.80;99.90;;;;;;2072901;28;20174;-70
2021/03/02 01:54:41;;;;;;;21.00;11.57;;;-1.80;99.90;;;;;;2064305;28;20175;-70
2021/03/02 01:55:42;;;;;;;16.20;9.60;;;-1.80;99.90;;;;;;2064172;28;20661;-70
2021/03/02 01:56:43;;;;;;;19.17;9.70;;;-1.80;99.90;;;;;;2072403;28;20191;-70
2021/03/02 01:57:44;;;;;;;16.70;9.70;;;-1.80;99.90;;;;;;2072190;28;20634;-70
2021/03/02 01:58:45;;;;;;;19.08;9.93;;;-1.70;99.90;;;;;;2064185;28;20196;-70
2021/03/02 01:59:46;;;;;;;19.33;10.85;;;-1.70;99.90;;;;;;2048220;28;20184;-70
2021/03/02 02:00:52;;;;;;;19.50;10.50;;;-1.80;99.90;;;;;;2056037;28;20175;-70
2021/03/02 02:01:53;;;;;;;17.98;10.30;;;-1.80;99.90;;;;;;2072357;28;20880;-70
2021/03/02 02:03:20;;;;;;;17.27;9.98;;;-1.80;99.90;;;;;;2072107;28;20253;-70
2021/03/02 02:04:25;;;;;;;19.25;10.65;;;-1.80;99.90;;;;;;2056152;28;20179;-71
2021/03/02 02:05:32;;;;;;;19.88;10.45;;;-1.80;99.90;;;;;;2057464;28;20168;-71
2021/03/02 02:06:48;;;;;;;22.77;12.18;;;-1.80;99.90;;;;;;2064157;28;20170;-70
2021/03/02 02:08:01;;;;;;;21.60;11.90;;;-1.80;99.90;;;;;;2064310;28;20207;-71
2021/03/02 02:09:16;;;;;;;20.30;11.02;;;-1.80;99.90;;;;;;2065326;28;20190;-70
2021/03/02 02:10:28;;;;;;;18.65;10.93;;;-1.70;99.90;;;;;;2055896;28;20682;-71
2021/03/02 02:11:42;;;;;;;19.00;11.20;;;-1.80;99.90;;;;;;2050448;28;20164;-71
2021/03/02 02:12:56;;;;;;;18.85;10.95;;;-1.80;99.90;;;;;;2057789;28;20179;-70
2021/03/02 02:14:27;;;;;;;20.70;11.10;;;-1.80;99.90;;;;;;2066055;28;20184;-71
2021/03/02 02:15:35;;;;;;;17.40;9.73;;;-1.80;99.90;;;;;;2064219;28;20170;-71
2021/03/02 02:16:38;;;;;;;18.67;10.63;;;-1.70;99.90;;;;;;2065021;28;20166;-71
2021/03/02 02:17:47;;;;;;;18.80;10.65;;;-1.70;99.90;;;;;;2064217;28;20179;-71
2021/03/02 02:18:48;;;;;;;17.35;9.80;;;-1.70;99.90;;;;;;2065151;28;20172;-71
2021/03/02 02:19:53;;;;;;;20.15;10.88;;;-1.80;99.90;;;;;;2072003;28;20189;-71
2021/03/02 02:21:05;;;;;;;19.23;10.38;;;-1.80;99.90;;;;;;2063270;28;20188;-70
2021/03/02 02:22:20;;;;;;;20.98;10.45;;;-1.80;99.90;;;;;;2065880;28;20674;-70
2021/03/02 02:24:21;;;;;;;25.15;11.60;;;-1.80;99.90;;;;;;2072807;28;20177;-71
2021/03/02 02:25:45;;;;;;;16.98;9.10;;;-1.80;99.90;;;;;;2023961;29;20284;-70
2021/03/02 02:27:00;;;;;;;17.80;9.43;;;-1.80;99.90;;;;;;2026867;29;20251;-70
2021/03/02 02:28:03;;;;;;;21.48;10.75;;;-1.80;99.90;;;;;;2055886;28;20229;-70
2021/03/02 02:29:05;;;;;;;20.10;10.00;;;-1.90;99.90;;;;;;2048252;28;20758;-70
2021/03/02 02:30:06;;;;;;;20.13;10.95;;;-1.90;99.90;;;;;;2047735;28;20215;-70
2021/03/02 02:31:09;;;;;;;20.80;10.55;;;-1.90;99.90;;;;;;2055100;28;20672;-71
2021/03/02 02:32:11;;;;;;;21.92;11.40;;;-1.90;99.90;;;;;;2055885;28;20216;-70
2021/03/02 02:33:14;;;;;;;21.30;10.90;;;-1.90;99.90;;;;;;2055882;28;20550;-70
2021/03/02 02:34:18;;;;;;;21.55;11.63;;;-1.90;99.90;;;;;;2064494;28;20877;-71
2021/03/02 02:35:22;;;;;;;19.38;10.73;;;-1.90;99.90;;;;;;2064120;28;20680;-70
2021/03/02 02:36:24;;;;;;;26.75;12.63;;;-1.90;99.90;;;;;;2057048;28;20650;-70
2021/03/02 02:37:30;;;;;;;23.45;12.27;;;-1.90;99.90;;;;;;2056511;28;20180;-70
2021/03/02 02:38:31;;;;;;;20.63;10.65;;;-1.90;99.90;;;;;;2064996;28;20190;-70
2021/03/02 02:39:35;;;;;;;21.38;11.32;;;-1.90;99.90;;;;;;2064050;28;20186;-70
2021/03/02 02:40:38;;;;;;;18.67;10.50;;;-1.90;99.90;;;;;;2056477;28;20195;-70
2021/03/02 02:41:40;;;;;;;22.13;11.07;;;-1.90;99.90;;;;;;2056065;28;20200;-70
2021/03/02 02:42:45;;;;;;;23.65;11.80;;;-1.90;99.90;;;;;;2048133;28;20192;-70
2021/03/02 02:43:48;;;;;;;19.88;10.02;;;-1.90;99.90;;;;;;2049535;28;20874;-70
2021/03/02 02:44:49;;;;;;;18.65;10.00;;;-1.90;99.90;;;;;;2048762;28;20650;-70
2021/03/02 02:45:51;;;;;;;20.23;10.20;;;-1.90;99.90;;;;;;2056372;28;20192;-70
2021/03/02 02:46:56;;;;;;;18.42;11.60;;;-1.80;99.90;;;;;;2064260;28;20842;-70
2021/03/02 02:47:58;;;;;;;18.67;10.88;;;-1.80;99.90;;;;;;2057030;28;20246;-70
2021/03/02 02:49:00;;;;;;;16.60;9.85;;;-1.80;99.90;;;;;;2064372;28;20724;-70
2021/03/02 02:50:04;;;;;;;18.83;9.93;;;-1.80;99.90;;;;;;2072983;28;20207;-70
2021/03/02 02:51:05;;;;;;;21.45;11.07;;;-1.70;99.90;;;;;;2073676;28;20177;-70
2021/03/02 02:52:06;;;;;;;21.83;12.23;;;-1.70;99.90;;;;;;2065957;28;20232;-70
2021/03/02 02:53:07;;;;;;;19.83;11.10;;;-1.70;99.90;;;;;;2049965;28;20869;-70
2021/03/02 02:54:10;;;;;;;16.67;9.23;;;-1.70;99.90;;;;;;2049908;28;20860;-70
2021/03/02 02:55:16;;;;;;;18.38;9.75;;;-1.70;99.90;;;;;;2058385;28;20238;-70
2021/03/02 02:56:18;;;;;;;17.95;10.07;;;-1.70;99.90;;;;;;2066927;28;20223;-70
2021/03/02 02:57:21;;;;;;;15.07;8.38;;;-1.70;99.90;;;;;;2065915;28;20185;-70
2021/03/02 02:58:30;;;;;;;19.40;10.35;;;-1.80;99.90;;;;;;2066070;28;20313;-70
2021/03/02 02:59:38;;;;;;;16.13;8.52;;;-1.80;99.90;;;;;;2074083;28;20181;-70
2021/03/02 03:00:40;;;;;;;14.43;9.25;;;-1.90;99.90;;;;;;2065987;28;20198;-71
2021/03/02 03:01:45;;;;;;;19.55;9.35;;;-1.90;99.90;;;;;;2057498;28;20175;-70
2021/03/02 03:02:51;;;;;;;17.90;9.75;;;-1.90;99.90;;;;;;2058071;28;20202;-71
2021/03/02 03:03:55;;;;;;;17.70;9.48;;;-1.90;99.90;;;;;;2058673;28;20163;-70
2021/03/02 03:05:12;;;;;;;17.85;10.23;;;-1.90;99.90;;;;;;2058277;28;20191;-70
2021/03/02 03:06:18;;;;;;;21.52;10.60;;;-1.90;99.90;;;;;;2060035;28;20171;-70
2021/03/02 03:07:26;;;;;;;18.00;9.73;;;-1.90;99.90;;;;;;2058474;28;20204;-70
2021/03/02 03:08:32;;;;;;;18.90;9.88;;;-2.00;99.90;;;;;;2058699;28;20169;-70
2021/03/02 03:09:32;;;;;;;22.67;11.20;;;-2.00;99.90;;;;;;2057902;28;20201;-70
2021/03/02 03:10:35;;;;;;;19.37;10.57;;;-2.00;99.90;;;;;;2065370;28;20697;-70
2021/03/02 03:11:51;;;;;;;15.85;9.68;;;-2.00;99.90;;;;;;2067695;28;20183;-70
2021/03/02 03:12:55;;;;;;;18.48;9.70;;;-2.00;99.90;;;;;;2067220;28;20681;-70
2021/03/02 03:13:57;;;;;;;17.08;9.55;;;-2.00;99.90;;;;;;2065552;28;20183;-70
2021/03/02 03:15:04;;;;;;;16.50;9.77;;;-2.00;99.90;;;;;;2073502;28;20186;-70
2021/03/02 03:16:07;;;;;;;17.20;9.38;;;-2.10;99.90;;;;;;2073364;28;20549;-70
2021/03/02 03:17:10;;;;;;;20.20;11.60;;;-2.00;99.90;;;;;;2065631;28;20592;-71
2021/03/02 03:18:12;;;;;;;19.00;10.93;;;-2.00;99.90;;;;;;2065556;28;20182;-71
2021/03/02 03:19:26;;;;;;;18.83;10.95;;;-2.00;99.90;;;;;;2073293;28;20186;-71
2021/03/02 03:20:27;;;;;;;17.58;10.43;;;-1.90;99.90;;;;;;2073361;28;20876;-71
2021/03/02 03:21:29;;;;;;;18.00;10.27;;;-1.90;99.90;;;;;;2064639;28;20225;-71
2021/03/02 03:22:31;;;;;;;19.58;10.13;;;-1.90;99.90;;;;;;2065342;28;20190;-71
2021/03/02 03:23:32;;;;;;;16.50;9.20;;;-1.90;99.90;;;;;;2065381;28;20266;-70
2021/03/02 03:24:33;;;;;;;17.33;9.83;;;-2.00;99.90;;;;;;2073233;28;20181;-71
2021/03/02 03:25:35;;;;;;;16.80;9.05;;;-2.00;99.90;;;;;;2073372;28;20187;-70
2021/03/02 03:26:37;;;;;;;16.15;8.73;;;-2.00;99.90;;;;;;2073323;28;20373;-70
2021/03/02 03:27:45;;;;;;;16.50;9.38;;;-2.10;99.90;;;;;;2073215;28;20244;-70
2021/03/02 03:28:48;;;;;;;18.25;9.95;;;-2.10;99.90;;;;;;2066197;28;20211;-71
2021/03/02 03:29:49;;;;;;;17.40;10.40;;;-2.10;99.90;;;;;;2065239;28;20182;-71
2021/03/02 03:30:51;;;;;;;17.35;10.23;;;-2.10;99.90;;;;;;2072947;28;20181;-71
2021/03/02 03:31:58;;;;;;;20.20;10.77;;;-2.10;99.90;;;;;;2081549;28;20248;-71
2021/03/02 03:33:02;;;;;;;15.80;9.43;;;-2.10;99.90;;;;;;2073277;28;20186;-71
2021/03/02 03:34:04;;;;;;;17.80;9.55;;;-2.20;99.90;;;;;;2073524;28;20221;-70
2021/03/02 03:35:07;;;;;;;16.95;9.90;;;-2.10;99.90;;;;;;2065058;28;20705;-71
2021/03/02 03:36:09;;;;;;;16.33;9.93;;;-2.10;99.90;;;;;;2065409;28;20213;-71
2021/03/02 03:37:10;;;;;;;14.55;9.15;;;-2.20;99.90;;;;;;2073330;28;20689;-71
2021/03/02 03:38:11;;;;;;;18.10;9.93;;;-2.10;99.90;;;;;;2073331;28;20192;-71
2021/03/02 03:39:12;;;;;;;19.17;10.52;;;-2.20;99.90;;;;;;2065125;28;20201;-71
2021/03/02 03:40:14;;;;;;;16.83;9.77;;;-2.20;99.90;;;;;;2065101;28;20205;-71
2021/03/02 03:41:15;;;;;;;16.70;9.38;;;-2.20;99.90;;;;;;2072373;28;20200;-71
2021/03/02 03:42:16;;;;;;;15.30;9.57;;;-2.20;99.90;;;;;;2065112;28;20306;-70
2021/03/02 03:43:16;;;;;;;17.27;9.90;;;-2.20;99.90;;;;;;2056805;28;20346;-70
2021/03/02 03:44:17;;;;;;;18.17;10.03;;;-2.20;99.90;;;;;;2065066;28;20682;-71
2021/03/02 03:45:18;;;;;;;17.63;9.70;;;-2.20;99.90;;;;;;2072851;28;20206;-70
2021/03/02 03:46:19;;;;;;;19.33;10.50;;;-2.20;99.90;;;;;;2081364;28;20185;-71
2021/03/02 03:47:19;;;;;;;19.57;9.77;;;-2.20;99.90;;;;;;2072896;28;20645;-71
2021/03/02 03:48:21;;;;;;;19.13;10.07;;;-2.20;99.90;;;;;;2065044;28;20619;-71
2021/03/02 03:49:21;;;;;;;16.52;10.00;;;-2.20;99.90;;;;;;2064984;28;20179;-70
2021/03/02 03:50:22;;;;;;;19.90;10.50;;;-2.20;99.90;;;;;;2073092;28;20308;-70
2021/03/02 03:51:25;;;;;;;20.50;11.33;;;-2.10;99.90;;;;;;2072294;28;20178;-70
2021/03/02 03:52:26;;;;;;;20.50;11.10;;;-2.10;99.90;;;;;;2073531;28;20848;-70
2021/03/02 03:53:33;;;;;;;19.87;10.77;;;-2.10;99.90;;;;;;2081186;28;20182;-70
2021/03/02 03:54:35;;;;;;;21.73;9.93;;;-2.10;99.90;;;;;;2073228;28;20193;-72
2021/03/02 03:55:40;;;;;;;20.70;10.02;;;-2.10;99.90;;;;;;2064974;28;20717;-71
2021/03/02 03:56:43;;;;;;;16.88;10.15;;;-2.10;99.90;;;;;;2065829;28;20217;-71
2021/03/02 03:57:45;;;;;;;19.95;10.27;;;-2.10;99.90;;;;;;2073092;28;20186;-71
2021/03/02 03:58:47;;;;;;;18.42;10.05;;;-2.10;99.90;;;;;;2073145;28;20220;-70
2021/03/02 03:59:48;;;;;;;18.00;10.10;;;-2.10;99.90;;;;;;2064935;28;20200;-71
2021/03/02 04:00:51;;;;;;;17.77;9.07;;;-2.10;99.90;;;;;;2072716;28;20192;-70
2021/03/02 04:01:54;;;;;;;15.23;9.18;;;-2.20;99.90;;;;;;2073766;28;20680;-70
2021/03/02 04:02:55;;;;;;;14.63;9.10;;;-2.20;99.90;;;;;;2064707;28;20191;-69
2021/03/02 04:03:56;;;;;;;16.15;9.13;;;-2.20;99.90;;;;;;2065452;28;20244;-70
2021/03/02 04:04:58;;;;;;;16.45;9.30;;;-2.20;99.90;;;;;;2065685;28;20194;-72
2021/03/02 04:06:01;;;;;;;17.20;9.40;;;-2.20;99.90;;;;;;2064846;28;20198;-71
2021/03/02 04:07:01;;;;;;;16.15;8.55;;;-2.20;99.90;;;;;;2073166;28;20210;-70
2021/03/02 04:08:03;;;;;;;17.40;9.50;;;-2.30;99.90;;;;;;2081046;28;20784;-71
2021/03/02 04:09:05;;;;;;;16.20;9.65;;;-2.30;99.90;;;;;;2073659;28;20178;-71
2021/03/02 04:10:08;;;;;;;20.05;10.90;;;-2.30;99.90;;;;;;2072707;28;20205;-71
2021/03/02 04:11:09;;;;;;;15.45;9.43;;;-2.30;99.90;;;;;;2064578;28;21232;-71
2021/03/02 04:12:10;;;;;;;17.83;10.33;;;-2.30;99.90;;;;;;2072902;28;20277;-71
2021/03/02 04:13:15;;;;;;;18.05;10.20;;;-2.30;99.90;;;;;;2072937;28;20269;-71
2021/03/02 04:14:16;;;;;;;19.02;10.50;;;-2.30;99.90;;;;;;2065443;28;20183;-71
2021/03/02 04:15:18;;;;;;;20.33;10.73;;;-2.30;99.90;;;;;;2073016;28;20627;-71
2021/03/02 04:16:18;;;;;;;20.35;10.80;;;-2.30;99.90;;;;;;2072889;28;20229;-71
2021/03/02 04:17:19;;;;;;;18.97;10.60;;;-2.20;99.90;;;;;;2072945;28;20182;-71
2021/03/02 04:18:20;;;;;;;19.93;10.33;;;-2.20;99.90;;;;;;2064634;28;20274;-71
2021/03/02 04:19:20;;;;;;;19.63;10.77;;;-2.20;99.90;;;;;;2064812;28;20266;-71
2021/03/02 04:20:21;;;;;;;23.20;11.13;;;-2.20;99.90;;;;;;2080846;28;20206;-71
2021/03/02 04:21:22;;;;;;;20.95;10.23;;;-2.20;99.90;;;;;;2080393;28;20189;-71
2021/03/02 04:22:22;;;;;;;17.47;9.97;;;-2.20;99.90;;;;;;2081070;28;20574;-71
2021/03/02 04:23:23;;;;;;;18.47;10.40;;;-2.20;99.90;;;;;;2073377;28;20239;-71
2021/03/02 04:24:24;;;;;;;18.97;10.57;;;-2.20;99.90;;;;;;2073417;28;20304;-71
2021/03/02 04:25:25;;;;;;;18.20;10.53;;;-2.20;99.90;;;;;;2072987;28;20265;-71
2021/03/02 04:26:25;;;;;;;18.53;10.20;;;-2.20;99.90;;;;;;2064889;28;20286;-71
2021/03/02 04:27:26;;;;;;;22.37;11.57;;;-2.20;99.90;;;;;;2064903;28;20213;-71
2021/03/02 04:28:27;;;;;;;19.80;9.90;;;-2.20;99.90;;;;;;2064926;28;20179;-73
2021/03/02 04:29:28;;;;;;;17.20;10.03;;;-2.20;99.90;;;;;;2073618;28;20178;-72
2021/03/02 04:30:29;;;;;;;17.20;9.40;;;-2.30;99.90;;;;;;2081573;28;20364;-71
2021/03/02 04:31:29;;;;;;;18.25;9.55;;;-2.30;99.90;;;;;;2072934;28;20203;-71
2021/03/02 04:32:30;;;;;;;15.33;8.43;;;-2.30;99.90;;;;;;2073302;28;20182;-71
2021/03/02 04:33:31;;;;;;;15.80;9.30;;;-2.30;99.90;;;;;;2074211;28;20194;-71
2021/03/02 04:34:32;;;;;;;15.77;9.30;;;-2.30;99.90;;;;;;2074336;28;20653;-71
2021/03/02 04:35:33;;;;;;;17.67;9.40;;;-2.30;99.90;;;;;;2065399;28;20185;-72
2021/03/02 04:36:33;;;;;;;17.75;10.93;;;-2.40;99.90;;;;;;2057721;28;20179;-71
2021/03/02 04:37:36;;;;;;;20.60;10.47;;;-2.40;99.90;;;;;;2073573;28;20186;-71
2021/03/02 04:38:37;;;;;;;19.80;10.32;;;-2.40;99.90;;;;;;2073870;28;20205;-73
2021/03/02 04:39:38;;;;;;;17.60;10.27;;;-2.40;99.90;;;;;;2073405;28;20194;-71
2021/03/02 04:40:38;;;;;;;19.33;10.13;;;-2.40;99.90;;;;;;2074297;28;20225;-72
2021/03/02 04:41:39;;;;;;;20.40;11.13;;;-2.40;99.90;;;;;;2073752;28;20178;-71
2021/03/02 04:42:41;;;;;;;19.13;10.90;;;-2.40;99.90;;;;;;2074363;28;20181;-71
2021/03/02 04:43:42;;;;;;;17.73;10.55;;;-2.50;99.90;;;;;;2070296;28;20181;-70
2021/03/02 04:44:42;;;;;;;18.70;10.13;;;-2.50;99.90;;;;;;2057185;28;20221;-71
2021/03/02 04:45:43;;;;;;;20.70;10.37;;;-2.50;99.90;;;;;;2057234;28;20218;-71
2021/03/02 04:46:44;;;;;;;13.30;9.10;;;-2.50;99.90;;;;;;2057685;28;20266;-71
2021/03/02 04:47:46;;;;;;;18.30;10.60;;;-2.50;99.90;;;;;;2065314;28;20270;-71
2021/03/02 04:48:47;;;;;;;17.60;9.65;;;-2.40;99.90;;;;;;2073510;28;20215;-72
2021/03/02 04:49:48;;;;;;;17.90;9.63;;;-2.50;99.90;;;;;;2064820;28;20273;-72
2021/03/02 04:50:49;;;;;;;16.27;9.45;;;-2.50;99.90;;;;;;2065015;28;20182;-71
2021/03/02 04:51:50;;;;;;;15.73;9.63;;;-2.50;99.90;;;;;;2074558;28;20197;-71
2021/03/02 04:52:55;;;;;;;16.60;9.88;;;-2.50;99.90;;;;;;2073698;28;20236;-71
2021/03/02 04:53:55;;;;;;;17.02;9.20;;;-2.50;99.90;;;;;;2074377;28;20181;-71
2021/03/02 04:54:56;;;;;;;17.90;9.63;;;-2.50;99.90;;;;;;2064650;28;20273;-71
2021/03/02 04:55:57;;;;;;;20.33;10.20;;;-2.50;99.90;;;;;;2064347;28;20254;-71
2021/03/02 04:56:57;;;;;;;17.00;10.07;;;-2.50;99.90;;;;;;2073368;28;20624;-71
2021/03/02 04:57:58;;;;;;;17.40;10.17;;;-2.50;99.90;;;;;;2073164;28;20286;-71
2021/03/02 04:58:59;;;;;;;18.97;10.70;;;-2.50;99.90;;;;;;2073293;28;20730;-71
2021/03/02 04:59:59;;;;;;;21.90;11.07;;;-2.50;99.90;;;;;;2073019;28;20559;-70
2021/03/02 05:01:00;;;;;;;18.23;10.10;;;-2.50;99.90;;;;;;2063829;28;20202;-70
2021/03/02 05:02:01;;;;;;;15.00;9.80;;;-2.50;99.90;;;;;;2064489;28;20210;-71
2021/03/02 05:03:02;;;;;;;19.73;11.00;;;-2.50;99.90;;;;;;2073370;28;20649;-69
2021/03/02 05:04:03;;;;;;;19.97;10.70;;;-2.50;99.90;;;;;;2073222;28;20260;-70
2021/03/02 05:05:05;;;;;;;20.52;10.18;;;-2.50;99.90;;;;;;2073319;28;20193;-70
2021/03/02 05:06:09;;;;;;;16.30;9.10;;;-2.50;99.90;;;;;;2073096;28;20597;-70
2021/03/02 05:07:09;;;;;;;16.52;9.60;;;-2.50;99.90;;;;;;2064683;28;20229;-70
2021/03/02 05:08:10;;;;;;;19.73;10.10;;;-2.50;99.90;;;;;;2056679;28;20267;-69
2021/03/02 05:09:11;;;;;;;15.80;9.63;;;-2.50;99.90;;;;;;2064545;28;20175;-70
2021/03/02 05:10:12;;;;;;;16.53;9.93;;;-2.50;99.90;;;;;;2072945;28;20726;-70
2021/03/02 05:11:13;;;;;;;16.83;9.07;;;-2.50;99.90;;;;;;2063863;28;20225;-70
2021/03/02 05:12:14;;;;;;;17.50;10.10;;;-2.60;99.90;;;;;;2064176;28;20213;-69
2021/03/02 05:13:15;;;;;;;16.77;9.63;;;-2.60;99.90;;;;;;2064463;28;20217;-69
2021/03/02 05:14:15;;;;;;;18.07;9.30;;;-2.60;99.90;;;;;;2056125;28;20193;-69
2021/03/02 05:15:16;;;;;;;17.80;9.90;;;-2.60;99.90;;;;;;2064509;28;20685;-70
2021/03/02 05:16:17;;;;;;;20.58;10.52;;;-2.60;99.90;;;;;;2073060;28;20178;-70
2021/03/02 05:17:18;;;;;;;15.80;9.07;;;-2.50;99.90;;;;;;2072979;28;20251;-70
2021/03/02 05:18:18;;;;;;;18.33;9.27;;;-2.50;99.90;;;;;;2064359;28;20662;-70
2021/03/02 05:19:19;;;;;;;21.13;10.93;;;-2.50;99.90;;;;;;2064412;28;20209;-69
2021/03/02 05:20:20;;;;;;;22.17;10.38;;;-2.50;99.90;;;;;;2073021;28;20208;-69